KCOT/COT METAR and TAF weather

Enter ICAO airport designator
Station Type Date Time Source
KCOT METAR 2018/10/16 20:53 UTC NOAA

KCOT 162053Z AUTO 34012KT 10SM OVC012 11/09 A3016 RMK AO2 SLP212 T01060089 56018


Station Type Date Time Source
KCOT Decoded METAR 2018/10/16 20:53 UTC NOAA

COTULLA-LASALLE COUNTY AIRPORT , TX, United States (KCOT) 28-27N 099-13W 140M
Oct 16, 2018 - 04:53 PM EDT / 2018.10.16 2053 UTC
Wind: from the NNW (340 degrees) at 14 MPH (12 KT):0
Visibility: 10 mile(s):0
Sky conditions: overcast
Temperature: 51.1 F (10.6 C)
Dew Point: 48.0 F (8.9 C)
Relative Humidity: 89%
Pressure (altimeter): 30.16 in. Hg (1021 hPa)
Pressure tendency: 0.05 inches (1.8 hPa) lower than three hours ago
ob: KCOT 162053Z AUTO 34012KT 10SM OVC012 11/09 A3016 RMK AO2 SLP212 T01060089 56018
cycle: 21

Station Type Date Time Source
KCOT TAF UTC NOAA

Error!


Example: see airport list